sensor_id;sensor_type;location;lat;lon;timestamp;pressure;altitude;pressure_sealevel;temperature;humidity
53522;BME280;39398;48.382;9.802;2022-08-07T00:00:00;94419.94;;;12.66;97.91
53522;BME280;39398;48.382;9.802;2022-08-07T00:01:05;94424.44;;;12.65;98.15
53522;BME280;39398;48.382;9.802;2022-08-07T00:02:26;94414.69;;;12.72;98.01
53522;BME280;39398;48.382;9.802;2022-08-07T00:03:41;94408.84;;;12.77;97.26
53522;BME280;39398;48.382;9.802;2022-08-07T00:04:47;94407.63;;;12.79;97.26
53522;BME280;39398;48.382;9.802;2022-08-07T00:05:49;94403.09;;;12.73;97.52
53522;BME280;39398;48.382;9.802;2022-08-07T00:06:51;94413.44;;;12.68;97.55
53522;BME280;39398;48.382;9.802;2022-08-07T00:07:53;94415.22;;;12.61;98.04
53522;BME280;39398;48.382;9.802;2022-08-07T00:09:02;94411.31;;;12.57;98.29
53522;BME280;39398;48.382;9.802;2022-08-07T00:10:17;94424.97;;;12.54;99.10
53522;BME280;39398;48.382;9.802;2022-08-07T00:11:28;94422.06;;;12.49;99.37
53522;BME280;39398;48.382;9.802;2022-08-07T00:12:33;94426.84;;;12.39;99.89
53522;BME280;39398;48.382;9.802;2022-08-07T00:13:45;94420.75;;;12.38;100.00
53522;BME280;39398;48.382;9.802;2022-08-07T00:14:47;94428.31;;;12.41;100.00
53522;BME280;39398;48.382;9.802;2022-08-07T00:15:50;94424.38;;;12.37;100.00
53522;BME280;39398;48.382;9.802;2022-08-07T00:16:52;94419.03;;;12.30;100.00
53522;BME280;39398;48.382;9.802;2022-08-07T00:17:53;94419.03;;;12.30;100.00
53522;BME280;39398;48.382;9.802;2022-08-07T00:18:55;94423.63;;;12.22;100.00
53522;BME280;39398;48.382;9.802;2022-08-07T00:19:56;94423.44;;;12.23;100.00
53522;BME280;39398;48.382;9.802;2022-08-07T00:21:05;94427.56;;;12.26;100.00
53522;BME280;39398;48.382;9.802;2022-08-07T00:22:27;94422.25;;;12.26;100.00
53522;BME280;39398;48.382;9.802;2022-08-07T00:23:37;94426.16;;;12.30;100.00
53522;BME280;39398;48.382;9.802;2022-08-07T00:24:40;94430.13;;;12.41;98.93
53522;BME280;39398;48.382;9.802;2022-08-07T00:25:44;94431.56;;;12.43;97.97
53522;BME280;39398;48.382;9.802;2022-08-07T00:27:00;94428.09;;;12.43;95.61
53522;BME280;39398;48.382;9.802;2022-08-07T00:28:08;94425.47;;;12.43;94.55
53522;BME280;39398;48.382;9.802;2022-08-07T00:29:12;94425.50;;;12.49;92.97
53522;BME280;39398;48.382;9.802;2022-08-07T00:30:16;94421.34;;;12.62;91.95
53522;BME280;39398;48.382;9.802;2022-08-07T00:31:28;94421.03;;;12.50;89.99
53522;BME280;39398;48.382;9.802;2022-08-07T00:32:41;94420.44;;;12.48;90.22
53522;BME280;39398;48.382;9.802;2022-08-07T00:33:43;94420.84;;;12.51;87.16
53522;BME280;39398;48.382;9.802;2022-08-07T00:34:48;94421.84;;;12.50;86.30
53522;BME280;39398;48.382;9.802;2022-08-07T00:35:51;94420.94;;;12.37;86.59
53522;BME280;39398;48.382;9.802;2022-08-07T00:36:52;94413.69;;;12.45;86.99
53522;BME280;39398;48.382;9.802;2022-08-07T00:37:54;94416.88;;;12.41;87.15
53522;BME280;39398;48.382;9.802;2022-08-07T00:38:57;94418.38;;;12.50;85.29
53522;BME280;39398;48.382;9.802;2022-08-07T00:39:59;94415.34;;;12.53;83.93
53522;BME280;39398;48.382;9.802;2022-08-07T00:41:01;94416.38;;;12.52;84.31
53522;BME280;39398;48.382;9.802;2022-08-07T00:42:03;94415.56;;;12.51;84.13
53522;BME280;39398;48.382;9.802;2022-08-07T00:43:06;94415.88;;;12.42;84.69
53522;BME280;39398;48.382;9.802;2022-08-07T00:44:12;94422.75;;;12.36;84.97
53522;BME280;39398;48.382;9.802;2022-08-07T00:45:15;94416.75;;;12.49;83.19
53522;BME280;39398;48.382;9.802;2022-08-07T00:46:17;94419.91;;;12.38;84.17
53522;BME280;39398;48.382;9.802;2022-08-07T00:47:20;94418.59;;;12.48;84.03
53522;BME280;39398;48.382;9.802;2022-08-07T00:48:41;94422.16;;;12.41;84.23
53522;BME280;39398;48.382;9.802;2022-08-07T00:49:43;94410.53;;;12.35;83.92
53522;BME280;39398;48.382;9.802;2022-08-07T00:51:05;94413.31;;;12.27;84.19
53522;BME280;39398;48.382;9.802;2022-08-07T00:52:08;94403.97;;;12.31;83.29
53522;BME280;39398;48.382;9.802;2022-08-07T00:53:10;94404.28;;;12.21;83.07
53522;BME280;39398;48.382;9.802;2022-08-07T00:54:12;94403.28;;;12.22;82.35
53522;BME280;39398;48.382;9.802;2022-08-07T00:55:14;94405.41;;;12.33;80.84
53522;BME280;39398;48.382;9.802;2022-08-07T00:56:26;94405.09;;;12.22;82.37
53522;BME280;39398;48.382;9.802;2022-08-07T00:57:31;94400.13;;;12.12;83.81
53522;BME280;39398;48.382;9.802;2022-08-07T00:58:34;94411.28;;;12.07;84.71
53522;BME280;39398;48.382;9.802;2022-08-07T00:59:39;94408.25;;;12.10;83.96
53522;BME280;39398;48.382;9.802;2022-08-07T01:00:41;94408.13;;;12.19;83.31
53522;BME280;39398;48.382;9.802;2022-08-07T01:01:54;94414.81;;;12.15;84.02
53522;BME280;39398;48.382;9.802;2022-08-07T01:02:58;94409.53;;;12.15;83.63
53522;BME280;39398;48.382;9.802;2022-08-07T01:04:04;94410.53;;;12.14;84.49
53522;BME280;39398;48.382;9.802;2022-08-07T01:05:08;94403.41;;;12.14;84.63
53522;BME280;39398;48.382;9.802;2022-08-07T01:06:20;94404.28;;;12.21;84.68
53522;BME280;39398;48.382;9.802;2022-08-07T01:07:22;94400.66;;;12.22;83.78
53522;BME280;39398;48.382;9.802;2022-08-07T01:08:28;94401.47;;;12.23;83.47
53522;BME280;39398;48.382;9.802;2022-08-07T01:09:29;94400.06;;;12.27;82.21
53522;BME280;39398;48.382;9.802;2022-08-07T01:10:52;94398.66;;;12.31;82.25
53522;BME280;39398;48.382;9.802;2022-08-07T01:11:57;94397.09;;;12.37;82.12
53522;BME280;39398;48.382;9.802;2022-08-07T01:13:19;94396.66;;;12.33;81.19
53522;BME280;39398;48.382;9.802;2022-08-07T01:14:21;94399.63;;;12.23;81.43
53522;BME280;39398;48.382;9.802;2022-08-07T01:15:31;94395.22;;;12.09;82.39
53522;BME280;39398;48.382;9.802;2022-08-07T01:16:54;94397.69;;;12.10;82.83
53522;BME280;39398;48.382;9.802;2022-08-07T01:17:56;94391.94;;;12.07;81.90
53522;BME280;39398;48.382;9.802;2022-08-07T01:18:58;94392.69;;;12.01;83.16
53522;BME280;39398;48.382;9.802;2022-08-07T01:20:04;94386.09;;;11.90;84.05
53522;BME280;39398;48.382;9.802;2022-08-07T01:21:11;94385.06;;;11.91;84.29
53522;BME280;39398;48.382;9.802;2022-08-07T01:22:24;94379.72;;;11.84;84.70
53522;BME280;39398;48.382;9.802;2022-08-07T01:23:30;94387.41;;;12.01;83.32
53522;BME280;39398;48.382;9.802;2022-08-07T01:24:40;94384.25;;;11.91;83.57
53522;BME280;39398;48.382;9.802;2022-08-07T01:25:42;94380.59;;;11.92;83.82
53522;BME280;39398;48.382;9.802;2022-08-07T01:26:58;94386.97;;;11.82;85.02
53522;BME280;39398;48.382;9.802;2022-08-07T01:28:00;94385.31;;;11.96;83.20
53522;BME280;39398;48.382;9.802;2022-08-07T01:29:02;94386.47;;;11.87;83.38
53522;BME280;39398;48.382;9.802;2022-08-07T01:30:06;94387.50;;;11.71;84.76
53522;BME280;39398;48.382;9.802;2022-08-07T01:31:11;94376.97;;;11.78;84.52
53522;BME280;39398;48.382;9.802;2022-08-07T01:32:18;94380.31;;;11.86;82.42
53522;BME280;39398;48.382;9.802;2022-08-07T01:33:23;94377.78;;;11.78;82.94
53522;BME280;39398;48.382;9.802;2022-08-07T01:34:30;94367.59;;;11.75;83.47
53522;BME280;39398;48.382;9.802;2022-08-07T01:35:32;94372.09;;;11.60;84.50
53522;BME280;39398;48.382;9.802;2022-08-07T01:36:55;94376.75;;;11.58;84.73
53522;BME280;39398;48.382;9.802;2022-08-07T01:37:58;94375.91;;;11.57;84.56
53522;BME280;39398;48.382;9.802;2022-08-07T01:39:00;94370.91;;;11.62;84.88
53522;BME280;39398;48.382;9.802;2022-08-07T01:40:11;94372.81;;;11.69;83.86
53522;BME280;39398;48.382;9.802;2022-08-07T01:41:17;94372.75;;;11.62;84.61
53522;BME280;39398;48.382;9.802;2022-08-07T01:42:27;94372.44;;;11.72;83.80
53522;BME280;39398;48.382;9.802;2022-08-07T01:43:50;94376.38;;;11.61;85.02
53522;BME280;39398;48.382;9.802;2022-08-07T01:44:51;94370.19;;;11.54;84.97
53522;BME280;39398;48.382;9.802;2022-08-07T01:45:54;94366.88;;;11.67;84.52
53522;BME280;39398;48.382;9.802;2022-08-07T01:46:59;94376.00;;;11.64;84.75
53522;BME280;39398;48.382;9.802;2022-08-07T01:48:14;94371.63;;;11.71;84.61
53522;BME280;39398;48.382;9.802;2022-08-07T01:49:31;94370.88;;;11.77;83.99
53522;BME280;39398;48.382;9.802;2022-08-07T01:50:35;94369.38;;;11.90;82.54
53522;BME280;39398;48.382;9.802;2022-08-07T01:51:41;94370.06;;;11.98;82.08
53522;BME280;39398;48.382;9.802;2022-08-07T01:53:05;94366.69;;;12.04;81.71
53522;BME280;39398;48.382;9.802;2022-08-07T01:54:12;94367.25;;;12.00;82.12
53522;BME280;39398;48.382;9.802;2022-08-07T01:55:36;94374.81;;;12.03;81.41
53522;BME280;39398;48.382;9.802;2022-08-07T01:56:45;94366.34;;;12.14;80.68
53522;BME280;39398;48.382;9.802;2022-08-07T01:57:51;94364.91;;;12.12;80.66
53522;BME280;39398;48.382;9.802;2022-08-07T01:59:21;94365.28;;;12.08;80.86
53522;BME280;39398;48.382;9.802;2022-08-07T02:00:31;94356.84;;;11.98;81.32
53522;BME280;39398;48.382;9.802;2022-08-07T02:01:52;94357.22;;;11.95;81.81
53522;BME280;39398;48.382;9.802;2022-08-07T02:03:08;94364.66;;;11.85;81.90
53522;BME280;39398;48.382;9.802;2022-08-07T02:04:25;94364.13;;;11.75;82.75
53522;BME280;39398;48.382;9.802;2022-08-07T02:05:32;94360.19;;;11.71;83.12
53522;BME280;39398;48.382;9.802;2022-08-07T02:06:56;94359.44;;;11.77;82.94
53522;BME280;39398;48.382;9.802;2022-08-07T02:08:03;94355.19;;;11.76;83.11
53522;BME280;39398;48.382;9.802;2022-08-07T02:09:13;94357.78;;;11.54;83.91
53522;BME280;39398;48.382;9.802;2022-08-07T02:10:37;94352.84;;;11.66;82.86
53522;BME280;39398;48.382;9.802;2022-08-07T02:11:44;94357.94;;;11.68;83.00
53522;BME280;39398;48.382;9.802;2022-08-07T02:13:06;94351.66;;;11.69;82.76
53522;BME280;39398;48.382;9.802;2022-08-07T02:14:08;94361.72;;;11.58;83.43
53522;BME280;39398;48.382;9.802;2022-08-07T02:15:31;94359.81;;;11.52;83.84
53522;BME280;39398;48.382;9.802;2022-08-07T02:16:36;94348.13;;;11.61;83.44
53522;BME280;39398;48.382;9.802;2022-08-07T02:17:39;94357.03;;;11.60;83.94
53522;BME280;39398;48.382;9.802;2022-08-07T02:18:50;94363.06;;;11.54;84.19
53522;BME280;39398;48.382;9.802;2022-08-07T02:19:53;94361.13;;;11.63;83.39
53522;BME280;39398;48.382;9.802;2022-08-07T02:21:10;94361.41;;;11.68;83.25
53522;BME280;39398;48.382;9.802;2022-08-07T02:22:17;94357.56;;;11.71;82.83
53522;BME280;39398;48.382;9.802;2022-08-07T02:23:19;94358.25;;;11.79;82.26
53522;BME280;39398;48.382;9.802;2022-08-07T02:24:26;94360.28;;;11.77;82.41
53522;BME280;39398;48.382;9.802;2022-08-07T02:25:33;94353.88;;;11.86;82.09
53522;BME280;39398;48.382;9.802;2022-08-07T02:26:54;94351.75;;;11.97;81.93
53522;BME280;39398;48.382;9.802;2022-08-07T02:28:01;94357.06;;;11.82;82.20
53522;BME280;39398;48.382;9.802;2022-08-07T02:29:09;94358.19;;;11.88;82.43
53522;BME280;39398;48.382;9.802;2022-08-07T02:30:14;94357.66;;;11.77;83.02
53522;BME280;39398;48.382;9.802;2022-08-07T02:31:17;94357.66;;;11.77;82.97
53522;BME280;39398;48.382;9.802;2022-08-07T02:32:30;94358.13;;;11.66;83.71
53522;BME280;39398;48.382;9.802;2022-08-07T02:33:35;94354.84;;;11.64;83.69
53522;BME280;39398;48.382;9.802;2022-08-07T02:34:58;94356.81;;;11.77;83.03
53522;BME280;39398;48.382;9.802;2022-08-07T02:36:02;94353.34;;;11.76;82.85
53522;BME280;39398;48.382;9.802;2022-08-07T02:37:25;94361.88;;;11.57;83.93
53522;BME280;39398;48.382;9.802;2022-08-07T02:38:36;94355.16;;;11.54;83.99
53522;BME280;39398;48.382;9.802;2022-08-07T02:39:41;94352.94;;;11.58;83.70
53522;BME280;39398;48.382;9.802;2022-08-07T02:41:04;94358.50;;;11.63;83.59
53522;BME280;39398;48.382;9.802;2022-08-07T02:42:08;94361.25;;;11.55;83.94
53522;BME280;39398;48.382;9.802;2022-08-07T02:43:15;94358.00;;;11.53;84.60
53522;BME280;39398;48.382;9.802;2022-08-07T02:44:19;94361.50;;;11.60;84.65
53522;BME280;39398;48.382;9.802;2022-08-07T02:45:24;94358.72;;;11.47;85.06
53522;BME280;39398;48.382;9.802;2022-08-07T02:46:46;94363.88;;;11.33;85.72
53522;BME280;39398;48.382;9.802;2022-08-07T02:47:53;94360.41;;;11.33;85.88
53522;BME280;39398;48.382;9.802;2022-08-07T02:48:59;94363.88;;;11.18;86.33
53522;BME280;39398;48.382;9.802;2022-08-07T02:50:06;94354.84;;;11.28;86.29
53522;BME280;39398;48.382;9.802;2022-08-07T02:51:12;94360.63;;;11.53;85.43
53522;BME280;39398;48.382;9.802;2022-08-07T02:52:39;94364.47;;;11.50;85.89
53522;BME280;39398;48.382;9.802;2022-08-07T02:53:45;94358.66;;;11.40;86.25
53522;BME280;39398;48.382;9.802;2022-08-07T02:54:49;94361.84;;;11.35;86.55
53522;BME280;39398;48.382;9.802;2022-08-07T02:55:54;94363.50;;;11.36;86.61
53522;BME280;39398;48.382;9.802;2022-08-07T02:57:07;94363.13;;;11.39;86.62
53522;BME280;39398;48.382;9.802;2022-08-07T02:58:17;94364.00;;;11.47;86.58
53522;BME280;39398;48.382;9.802;2022-08-07T02:59:24;94363.50;;;11.36;87.05
53522;BME280;39398;48.382;9.802;2022-08-07T03:00:29;94368.78;;;11.36;87.38
53522;BME280;39398;48.382;9.802;2022-08-07T03:01:33;94364.84;;;11.47;86.71
53522;BME280;39398;48.382;9.802;2022-08-07T03:02:43;94362.28;;;11.39;86.66
53522;BME280;39398;48.382;9.802;2022-08-07T03:03:55;94358.44;;;11.56;86.47
53522;BME280;39398;48.382;9.802;2022-08-07T03:05:05;94354.31;;;11.54;86.08
53522;BME280;39398;48.382;9.802;2022-08-07T03:06:07;94365.09;;;11.52;86.48
53522;BME280;39398;48.382;9.802;2022-08-07T03:07:26;94355.06;;;11.48;86.67
53522;BME280;39398;48.382;9.802;2022-08-07T03:08:48;94356.81;;;11.40;87.08
53522;BME280;39398;48.382;9.802;2022-08-07T03:09:53;94361.44;;;11.53;86.88
53522;BME280;39398;48.382;9.802;2022-08-07T03:10:56;94364.53;;;11.57;87.07
53522;BME280;39398;48.382;9.802;2022-08-07T03:11:58;94355.66;;;11.64;87.29
53522;BME280;39398;48.382;9.802;2022-08-07T03:13:03;94356.06;;;11.61;87.30
53522;BME280;39398;48.382;9.802;2022-08-07T03:14:08;94360.50;;;11.61;87.34
53522;BME280;39398;48.382;9.802;2022-08-07T03:15:10;94355.78;;;11.56;87.45
53522;BME280;39398;48.382;9.802;2022-08-07T03:16:12;94359.38;;;11.49;88.30
53522;BME280;39398;48.382;9.802;2022-08-07T03:17:14;94363.94;;;11.40;88.46
53522;BME280;39398;48.382;9.802;2022-08-07T03:18:17;94365.78;;;11.61;88.53
53522;BME280;39398;48.382;9.802;2022-08-07T03:19:21;94363.34;;;11.59;88.72
53522;BME280;39398;48.382;9.802;2022-08-07T03:20:23;94367.03;;;11.44;89.28
53522;BME280;39398;48.382;9.802;2022-08-07T03:21:25;94364.75;;;11.40;89.42
53522;BME280;39398;48.382;9.802;2022-08-07T03:22:28;94366.72;;;11.53;88.80
53522;BME280;39398;48.382;9.802;2022-08-07T03:23:31;94365.19;;;11.44;88.87
53522;BME280;39398;48.382;9.802;2022-08-07T03:24:35;94365.28;;;11.51;89.08
53522;BME280;39398;48.382;9.802;2022-08-07T03:25:40;94370.25;;;11.60;89.16
53522;BME280;39398;48.382;9.802;2022-08-07T03:26:44;94361.63;;;11.52;89.41
53522;BME280;39398;48.382;9.802;2022-08-07T03:27:59;94367.19;;;11.57;89.56
53522;BME280;39398;48.382;9.802;2022-08-07T03:29:21;94360.69;;;11.59;89.39
53522;BME280;39398;48.382;9.802;2022-08-07T03:30:29;94362.34;;;11.60;89.64
53522;BME280;39398;48.382;9.802;2022-08-07T03:31:31;94356.88;;;11.62;89.64
53522;BME280;39398;48.382;9.802;2022-08-07T03:32:46;94366.22;;;11.43;90.13
53522;BME280;39398;48.382;9.802;2022-08-07T03:34:00;94367.41;;;11.40;90.55
53522;BME280;39398;48.382;9.802;2022-08-07T03:35:04;94370.13;;;11.47;90.82
53522;BME280;39398;48.382;9.802;2022-08-07T03:36:20;94368.38;;;11.54;91.00
53522;BME280;39398;48.382;9.802;2022-08-07T03:37:28;94362.47;;;11.52;91.15
53522;BME280;39398;48.382;9.802;2022-08-07T03:38:38;94364.72;;;11.55;91.79
53522;BME280;39398;48.382;9.802;2022-08-07T03:39:41;94359.81;;;11.52;92.23
53522;BME280;39398;48.382;9.802;2022-08-07T03:41:02;94361.34;;;11.61;92.67
53522;BME280;39398;48.382;9.802;2022-08-07T03:42:05;94353.94;;;11.57;92.72
53522;BME280;39398;48.382;9.802;2022-08-07T03:43:07;94345.66;;;11.60;93.05
53522;BME280;39398;48.382;9.802;2022-08-07T03:44:14;94346.28;;;11.62;93.36
53522;BME280;39398;48.382;9.802;2022-08-07T03:45:23;94353.28;;;11.70;93.77
53522;BME280;39398;48.382;9.802;2022-08-07T03:46:32;94362.16;;;11.62;93.58
53522;BME280;39398;48.382;9.802;2022-08-07T03:47:34;94360.25;;;11.56;93.86
53522;BME280;39398;48.382;9.802;2022-08-07T03:48:48;94359.25;;;11.57;94.17
53522;BME280;39398;48.382;9.802;2022-08-07T03:50:04;94354.41;;;11.60;94.76
53522;BME280;39398;48.382;9.802;2022-08-07T03:51:12;94364.16;;;11.60;95.11
53522;BME280;39398;48.382;9.802;2022-08-07T03:52:16;94356.50;;;11.65;94.90
53522;BME280;39398;48.382;9.802;2022-08-07T03:53:27;94366.44;;;11.63;95.16
53522;BME280;39398;48.382;9.802;2022-08-07T03:54:48;94362.16;;;11.62;95.57
53522;BME280;39398;48.382;9.802;2022-08-07T03:56:19;94356.06;;;11.61;95.97
53522;BME280;39398;48.382;9.802;2022-08-07T03:57:34;94363.59;;;11.64;96.04
53522;BME280;39398;48.382;9.802;2022-08-07T03:58:56;94355.66;;;11.64;96.72
53522;BME280;39398;48.382;9.802;2022-08-07T04:00:14;94359.69;;;11.60;97.00
53522;BME280;39398;48.382;9.802;2022-08-07T04:01:22;94355.06;;;11.48;97.40
53522;BME280;39398;48.382;9.802;2022-08-07T04:02:27;94362.47;;;11.52;97.78
53522;BME280;39398;48.382;9.802;2022-08-07T04:03:29;94355.78;;;11.56;98.16
53522;BME280;39398;48.382;9.802;2022-08-07T04:04:51;94356.97;;;11.54;98.80
53522;BME280;39398;48.382;9.802;2022-08-07T04:05:53;94356.44;;;11.58;98.98
53522;BME280;39398;48.382;9.802;2022-08-07T04:06:59;94362.97;;;11.62;99.22
53522;BME280;39398;48.382;9.802;2022-08-07T04:08:01;94358.28;;;11.64;99.19
53522;BME280;39398;48.382;9.802;2022-08-07T04:09:04;94368.44;;;11.61;99.76
53522;BME280;39398;48.382;9.802;2022-08-07T04:10:06;94363.59;;;11.64;100.00
53522;BME280;39398;48.382;9.802;2022-08-07T04:11:17;94366.50;;;11.70;100.00
53522;BME280;39398;48.382;9.802;2022-08-07T04:12:39;94364.97;;;11.60;100.00
53522;BME280;39398;48.382;9.802;2022-08-07T04:13:41;94374.25;;;11.71;100.00
53522;BME280;39398;48.382;9.802;2022-08-07T04:15:03;94371.06;;;11.61;100.00
53522;BME280;39398;48.382;9.802;2022-08-07T04:16:06;94373.19;;;11.66;100.00
53522;BME280;39398;48.382;9.802;2022-08-07T04:17:11;94367.50;;;11.69;100.00
53522;BME280;39398;48.382;9.802;2022-08-07T04:18:21;94367.44;;;11.62;100.00
53522;BME280;39398;48.382;9.802;2022-08-07T04:19:43;94373.72;;;11.61;100.00
53522;BME280;39398;48.382;9.802;2022-08-07T04:20:54;94374.44;;;11.70;100.00
53522;BME280;39398;48.382;9.802;2022-08-07T04:21:56;94370.78;;;11.71;100.00
53522;BME280;39398;48.382;9.802;2022-08-07T04:23:00;94376.91;;;11.71;100.00
53522;BME280;39398;48.382;9.802;2022-08-07T04:24:07;94375.53;;;11.75;100.00
53522;BME280;39398;48.382;9.802;2022-08-07T04:25:09;94370.53;;;11.66;100.00
53522;BME280;39398;48.382;9.802;2022-08-07T04:26:13;94372.00;;;11.68;100.00
53522;BME280;39398;48.382;9.802;2022-08-07T04:27:18;94377.22;;;11.61;100.00
53522;BME280;39398;48.382;9.802;2022-08-07T04:28:40;94375.81;;;11.66;100.00
53522;BME280;39398;48.382;9.802;2022-08-07T04:29:42;94383.44;;;11.75;100.00
53522;BME280;39398;48.382;9.802;2022-08-07T04:31:04;94375.16;;;11.78;100.00
53522;BME280;39398;48.382;9.802;2022-08-07T04:32:08;94382.28;;;11.78;100.00
53522;BME280;39398;48.382;9.802;2022-08-07T04:33:11;94381.34;;;11.71;100.00
53522;BME280;39398;48.382;9.802;2022-08-07T04:34:16;94379.34;;;11.73;100.00
53522;BME280;39398;48.382;9.802;2022-08-07T04:35:33;94385.28;;;11.75;100.00
53522;BME280;39398;48.382;9.802;2022-08-07T04:36:36;94380.97;;;11.74;100.00
53522;BME280;39398;48.382;9.802;2022-08-07T04:37:40;94381.91;;;11.81;100.00
53522;BME280;39398;48.382;9.802;2022-08-07T04:39:03;94382.44;;;11.76;100.00
53522;BME280;39398;48.382;9.802;2022-08-07T04:40:05;94384.91;;;11.78;100.00
53522;BME280;39398;48.382;9.802;2022-08-07T04:41:08;94387.88;;;11.90;100.00
53522;BME280;39398;48.382;9.802;2022-08-07T04:42:19;94377.50;;;11.88;100.00
53522;BME280;39398;48.382;9.802;2022-08-07T04:43:31;94381.03;;;11.80;100.00
53522;BME280;39398;48.382;9.802;2022-08-07T04:44:53;94388.47;;;11.85;100.00
53522;BME280;39398;48.382;9.802;2022-08-07T04:46:07;94390.44;;;11.83;100.00
53522;BME280;39398;48.382;9.802;2022-08-07T04:47:18;94388.25;;;11.86;100.00
53522;BME280;39398;48.382;9.802;2022-08-07T04:48:47;94395.00;;;11.89;100.00
53522;BME280;39398;48.382;9.802;2022-08-07T04:49:55;94393.00;;;11.91;100.00
53522;BME280;39398;48.382;9.802;2022-08-07T04:51:06;94394.03;;;11.90;100.00
53522;BME280;39398;48.382;9.802;2022-08-07T04:52:13;94385.31;;;11.96;100.00
53522;BME280;39398;48.382;9.802;2022-08-07T04:53:23;94384.88;;;11.93;100.00
53522;BME280;39398;48.382;9.802;2022-08-07T04:54:54;94387.34;;;11.94;100.00
53522;BME280;39398;48.382;9.802;2022-08-07T04:56:03;94388.16;;;11.95;100.00
53522;BME280;39398;48.382;9.802;2022-08-07T04:57:31;94395.53;;;11.99;100.00
53522;BME280;39398;48.382;9.802;2022-08-07T04:58:57;94394.09;;;11.97;100.00
53522;BME280;39398;48.382;9.802;2022-08-07T05:00:29;94389.91;;;12.09;100.00
53522;BME280;39398;48.382;9.802;2022-08-07T05:01:42;94380.72;;;12.05;100.00
53522;BME280;39398;48.382;9.802;2022-08-07T05:02:57;94392.00;;;12.14;100.00
53522;BME280;39398;48.382;9.802;2022-08-07T05:04:05;94382.06;;;12.16;100.00
53522;BME280;39398;48.382;9.802;2022-08-07T05:05:22;94384.94;;;12.21;100.00
53522;BME280;39398;48.382;9.802;2022-08-07T05:06:52;94387.03;;;12.25;100.00
53522;BME280;39398;48.382;9.802;2022-08-07T05:08:00;94384.56;;;12.24;100.00
53522;BME280;39398;48.382;9.802;2022-08-07T05:09:08;94385.63;;;12.29;100.00
53522;BME280;39398;48.382;9.802;2022-08-07T05:10:13;94383.16;;;12.28;100.00
53522;BME280;39398;48.382;9.802;2022-08-07T05:11:20;94386.84;;;12.27;100.00
53522;BME280;39398;48.382;9.802;2022-08-07T05:12:31;94387.84;;;12.26;100.00
53522;BME280;39398;48.382;9.802;2022-08-07T05:13:44;94389.91;;;12.30;100.00
53522;BME280;39398;48.382;9.802;2022-08-07T05:15:09;94393.03;;;12.41;100.00
53522;BME280;39398;48.382;9.802;2022-08-07T05:16:14;94393.03;;;12.41;100.00
53522;BME280;39398;48.382;9.802;2022-08-07T05:17:18;94392.66;;;12.44;100.00
53522;BME280;39398;48.382;9.802;2022-08-07T05:18:44;94389.19;;;12.43;100.00
53522;BME280;39398;48.382;9.802;2022-08-07T05:19:50;94401.50;;;12.51;100.00
53522;BME280;39398;48.382;9.802;2022-08-07T05:20:56;94399.66;;;12.51;100.00
53522;BME280;39398;48.382;9.802;2022-08-07T05:21:59;94392.38;;;12.60;100.00
53522;BME280;39398;48.382;9.802;2022-08-07T05:23:09;94400.19;;;12.68;100.00
53522;BME280;39398;48.382;9.802;2022-08-07T05:24:16;94399.81;;;12.71;100.00
53522;BME280;39398;48.382;9.802;2022-08-07T05:25:26;94399.88;;;12.78;100.00
53522;BME280;39398;48.382;9.802;2022-08-07T05:26:52;94402.75;;;12.83;100.00
53522;BME280;39398;48.382;9.802;2022-08-07T05:28:00;94401.91;;;12.83;100.00
53522;BME280;39398;48.382;9.802;2022-08-07T05:29:22;94400.28;;;12.82;100.00
53522;BME280;39398;48.382;9.802;2022-08-07T05:30:28;94404.34;;;12.77;100.00
53522;BME280;39398;48.382;9.802;2022-08-07T05:31:36;94398.88;;;12.86;100.00
53522;BME280;39398;48.382;9.802;2022-08-07T05:32:39;94401.44;;;13.00;100.00
53522;BME280;39398;48.382;9.802;2022-08-07T05:33:44;94398.09;;;12.92;100.00
53522;BME280;39398;48.382;9.802;2022-08-07T05:35:02;94397.53;;;12.96;100.00
53522;BME280;39398;48.382;9.802;2022-08-07T05:36:06;94397.59;;;13.03;100.00
53522;BME280;39398;48.382;9.802;2022-08-07T05:37:23;94401.00;;;12.97;100.00
53522;BME280;39398;48.382;9.802;2022-08-07T05:38:26;94397.94;;;12.93;100.00
53522;BME280;39398;48.382;9.802;2022-08-07T05:39:48;94398.78;;;13.00;100.00
53522;BME280;39398;48.382;9.802;2022-08-07T05:41:10;94396.16;;;13.07;100.00
53522;BME280;39398;48.382;9.802;2022-08-07T05:42:15;94397.75;;;13.01;100.00
53522;BME280;39398;48.382;9.802;2022-08-07T05:43:38;94389.00;;;13.01;100.00
53522;BME280;39398;48.382;9.802;2022-08-07T05:45:00;94394.22;;;13.22;100.00
53522;BME280;39398;48.382;9.802;2022-08-07T05:46:21;94396.38;;;13.06;100.00
53522;BME280;39398;48.382;9.802;2022-08-07T05:47:26;94403.78;;;13.17;100.00
53522;BME280;39398;48.382;9.802;2022-08-07T05:48:49;94402.47;;;13.34;100.00
53522;BME280;39398;48.382;9.802;2022-08-07T05:49:59;94400.41;;;13.30;100.00
53522;BME280;39398;48.382;9.802;2022-08-07T05:51:02;94394.94;;;13.38;99.86
53522;BME280;39398;48.382;9.802;2022-08-07T05:52:04;94396.81;;;13.44;99.23
53522;BME280;39398;48.382;9.802;2022-08-07T05:53:06;94398.69;;;13.50;98.25
53522;BME280;39398;48.382;9.802;2022-08-07T05:54:28;94404.72;;;13.79;97.57
53522;BME280;39398;48.382;9.802;2022-08-07T05:55:38;94405.69;;;13.78;97.01
53522;BME280;39398;48.382;9.802;2022-08-07T05:57:01;94407.41;;;13.92;96.34
53522;BME280;39398;48.382;9.802;2022-08-07T05:58:04;94407.59;;;13.97;95.42
53522;BME280;39398;48.382;9.802;2022-08-07T05:59:13;94405.34;;;13.94;94.61
53522;BME280;39398;48.382;9.802;2022-08-07T06:00:16;94400.50;;;14.11;94.78
53522;BME280;39398;48.382;9.802;2022-08-07T06:01:18;94399.25;;;14.07;93.22
53522;BME280;39398;48.382;9.802;2022-08-07T06:02:24;94397.44;;;14.07;93.42
53522;BME280;39398;48.382;9.802;2022-08-07T06:03:30;94397.44;;;14.21;94.42
53522;BME280;39398;48.382;9.802;2022-08-07T06:04:56;94405.81;;;14.11;93.69
53522;BME280;39398;48.382;9.802;2022-08-07T06:05:59;94408.28;;;14.26;94.07